Nassau (NAS/MYNN)

Information

Location
Nassau, Bahamas
Local Time
19:27 / 7:27 pm
GMT Time
00:27 / 12:27 am
Gates
Unassigned
No FAA reported delays
METAR MYNN 230000Z 18005KT 9999 FEW025 25/18 A2979
TAF MYNN 222200Z 2300/2324 17015KT 9999 FEW025 BECMG 2306/2308 19025KT PROB30 2312/2319 3200 TSRA SCT015CB BKN200 BECMG 2318/2320 26025KT
  • No charts available